createdAt,value
2022-12-24T00:02:34.865Z,9.51
2022-12-24T00:05:16.982Z,9.94
2022-12-24T00:08:05.725Z,9.66
2022-12-24T00:10:59.031Z,9.63
2022-12-24T00:13:41.690Z,9.64
2022-12-24T00:16:30.874Z,9.57
2022-12-24T00:19:19.677Z,9.71
2022-12-24T00:22:01.843Z,9.70
2022-12-24T00:24:50.741Z,9.68
2022-12-24T00:27:39.659Z,9.68
2022-12-24T00:30:28.691Z,9.77
2022-12-24T00:33:11.540Z,9.87
2022-12-24T00:36:02.189Z,9.80
2022-12-24T00:38:44.536Z,9.63
2022-12-24T00:41:32.971Z,9.50
2022-12-24T00:44:19.681Z,9.90
2022-12-24T00:47:11.978Z,9.82
2022-12-24T00:49:54.676Z,9.56
2022-12-24T00:52:37.021Z,9.54
2022-12-24T00:55:25.631Z,9.74
2022-12-24T00:58:20.518Z,9.58
2022-12-24T01:01:09.681Z,9.55
2022-12-24T01:03:58.688Z,9.53
2022-12-24T01:06:41.072Z,9.45
2022-12-24T01:09:29.616Z,9.62
2022-12-24T01:12:18.585Z,9.64
2022-12-24T01:15:07.536Z,9.46
2022-12-24T01:17:55.944Z,9.34
2022-12-24T01:20:40.535Z,9.34
2022-12-24T01:23:28.969Z,9.28
2022-12-24T01:26:12.711Z,9.23
2022-12-24T01:28:55.408Z,9.10
2022-12-24T01:31:44.738Z,9.19
2022-12-24T01:34:33.997Z,9.57
2022-12-24T01:37:15.742Z,9.31
2022-12-24T01:40:17.662Z,9.21
2022-12-24T01:43:25.548Z,8.66
2022-12-24T01:46:40.631Z,9.27
2022-12-24T01:49:24.987Z,9.23
2022-12-24T01:52:18.702Z,9.49
2022-12-24T01:55:24.659Z,9.52
2022-12-24T01:58:22.749Z,9.57
2022-12-24T02:01:06.023Z,9.84
2022-12-24T02:03:54.740Z,9.37
2022-12-24T02:06:43.571Z,9.48
2022-12-24T02:09:32.599Z,9.41
2022-12-24T02:12:21.554Z,9.46
2022-12-24T02:15:11.649Z,9.72
2022-12-24T02:18:08.506Z,9.83
2022-12-24T02:21:15.695Z,9.70
2022-12-24T02:24:31.694Z,9.46
2022-12-24T02:27:24.971Z,9.15
2022-12-24T02:30:50.180Z,9.05
2022-12-24T02:33:54.886Z,9.25
2022-12-24T02:36:48.537Z,8.83
2022-12-24T02:40:01.157Z,8.86
2022-12-24T02:42:52.694Z,9.27
2022-12-24T02:45:39.986Z,9.22
2022-12-24T02:48:30.653Z,9.42
2022-12-24T02:51:18.968Z,9.64
2022-12-24T02:54:07.655Z,9.16
2022-12-24T02:57:06.500Z,9.20
2022-12-24T03:00:10.634Z,9.13
2022-12-24T03:03:26.922Z,9.41
2022-12-24T03:06:29.599Z,9.19
2022-12-24T03:09:42.908Z,9.33
2022-12-24T03:12:38.652Z,9.10
2022-12-24T03:15:25.274Z,8.89
2022-12-24T03:18:17.642Z,8.99
2022-12-24T03:21:09.030Z,9.11
2022-12-24T03:23:58.660Z,9.14
2022-12-24T03:26:48.920Z,9.45
2022-12-24T03:29:30.479Z,9.10
2022-12-24T03:32:12.809Z,9.25
2022-12-24T03:35:01.659Z,9.04
2022-12-24T03:37:43.808Z,9.23
2022-12-24T03:40:32.557Z,9.38
2022-12-24T03:43:20.907Z,9.04
2022-12-24T03:46:03.645Z,8.62
2022-12-24T03:48:51.893Z,8.36
2022-12-24T03:51:34.646Z,9.21
2022-12-24T03:54:22.999Z,9.44
2022-12-24T03:57:05.656Z,9.36
2022-12-24T04:00:00.525Z,9.67
2022-12-24T04:02:51.945Z,9.60
2022-12-24T04:05:40.562Z,9.77
2022-12-24T04:08:28.857Z,10.06
2022-12-24T04:11:13.692Z,9.79
2022-12-24T04:13:55.802Z,9.86
2022-12-24T04:16:44.800Z,9.84
2022-12-24T04:19:27.002Z,10.27
2022-12-24T04:22:15.472Z,10.09
2022-12-24T04:24:57.809Z,10.13
2022-12-24T04:27:46.622Z,9.67
2022-12-24T04:30:28.869Z,10.16
2022-12-24T04:33:17.578Z,9.61
2022-12-24T04:36:06.895Z,9.67
2022-12-24T04:38:49.892Z,9.57
2022-12-24T04:41:37.893Z,9.77
2022-12-24T04:44:19.685Z,9.77
2022-12-24T04:47:07.853Z,9.72
2022-12-24T04:49:50.533Z,9.59
2022-12-24T04:52:39.620Z,9.89
2022-12-24T04:55:21.922Z,9.89
2022-12-24T04:58:10.625Z,10.31
2022-12-24T05:00:59.958Z,10.45
2022-12-24T05:03:42.631Z,10.63
2022-12-24T05:06:34.931Z,10.89
2022-12-24T05:09:17.549Z,10.63
2022-12-24T05:12:06.595Z,10.67
2022-12-24T05:14:48.912Z,10.61
2022-12-24T05:17:37.590Z,10.96
2022-12-24T05:20:20.038Z,11.07
2022-12-24T05:23:26.596Z,11.08
2022-12-24T05:26:30.857Z,10.69
2022-12-24T05:29:20.496Z,11.51
2022-12-24T05:32:03.068Z,11.34
2022-12-24T05:34:51.671Z,11.33
2022-12-24T05:37:33.837Z,11.59
2022-12-24T05:40:22.626Z,11.43
2022-12-24T05:43:04.896Z,11.33
2022-12-24T05:45:53.635Z,10.81
2022-12-24T05:48:35.851Z,10.92
2022-12-24T05:51:29.543Z,11.04
2022-12-24T05:54:11.910Z,11.19
2022-12-24T05:57:00.556Z,11.61
2022-12-24T05:59:49.466Z,11.67
2022-12-24T06:02:37.887Z,11.28
2022-12-24T06:05:20.602Z,11.59
2022-12-24T06:08:08.979Z,11.42
2022-12-24T06:10:51.602Z,11.86
2022-12-24T06:13:34.257Z,11.63
2022-12-24T06:16:28.685Z,11.93
2022-12-24T06:19:10.742Z,11.92
2022-12-24T06:21:59.549Z,11.78
2022-12-24T06:24:48.538Z,12.18
2022-12-24T06:27:31.015Z,11.76
2022-12-24T06:30:19.652Z,11.62
2022-12-24T06:33:02.054Z,11.82
2022-12-24T06:35:50.504Z,12.04
2022-12-24T06:38:39.517Z,12.39
2022-12-24T06:41:29.492Z,12.64
2022-12-24T06:44:18.948Z,12.40
2022-12-24T06:47:06.911Z,12.08
2022-12-24T06:49:48.602Z,12.15
2022-12-24T06:52:37.635Z,12.37
2022-12-24T06:55:26.630Z,12.54
2022-12-24T06:58:21.485Z,13.13
2022-12-24T07:01:14.964Z,13.15
2022-12-24T07:03:57.541Z,13.16
2022-12-24T07:06:45.866Z,13.17
2022-12-24T07:09:27.573Z,13.76
2022-12-24T07:12:10.090Z,13.42
2022-12-24T07:14:58.548Z,13.43
2022-12-24T07:17:49.579Z,13.06
2022-12-24T07:20:32.072Z,13.30
2022-12-24T07:23:20.577Z,13.54
2022-12-24T07:26:03.702Z,13.74
2022-12-24T07:28:52.525Z,13.94
2022-12-24T07:31:35.153Z,14.08
2022-12-24T07:34:23.611Z,13.58
2022-12-24T07:37:05.839Z,13.93
2022-12-24T07:39:54.573Z,13.76
2022-12-24T07:42:37.253Z,13.86
2022-12-24T07:45:26.903Z,13.67
2022-12-24T07:48:08.849Z,13.73
2022-12-24T07:50:58.627Z,13.86
2022-12-24T07:53:41.201Z,13.80
2022-12-24T07:56:29.481Z,13.97
2022-12-24T07:59:28.660Z,14.23
2022-12-24T08:02:19.174Z,14.01
2022-12-24T08:05:01.593Z,13.97
2022-12-24T08:07:51.004Z,14.20
2022-12-24T08:10:33.477Z,14.34
2022-12-24T08:13:23.693Z,14.35
2022-12-24T08:16:07.045Z,14.39
2022-12-24T08:18:55.675Z,14.38
2022-12-24T08:21:37.884Z,13.88
2022-12-24T08:24:26.597Z,13.86
2022-12-24T08:27:08.908Z,13.97
2022-12-24T08:29:57.474Z,14.12
2022-12-24T08:32:47.639Z,13.87
2022-12-24T08:35:37.035Z,14.20
2022-12-24T08:38:19.444Z,14.51
2022-12-24T08:41:09.206Z,14.66
2022-12-24T08:43:58.538Z,14.73
2022-12-24T08:46:47.529Z,14.99
2022-12-24T08:49:36.600Z,14.85
2022-12-24T08:52:18.952Z,14.89
2022-12-24T08:55:07.580Z,14.39
2022-12-24T08:57:50.030Z,14.87
2022-12-24T09:00:39.542Z,14.72
2022-12-24T09:03:27.373Z,14.83
2022-12-24T09:06:17.629Z,14.70
2022-12-24T09:08:59.963Z,14.82
2022-12-24T09:11:48.708Z,14.94
2022-12-24T09:14:31.000Z,15.19
2022-12-24T09:17:20.571Z,15.41
2022-12-24T09:20:03.066Z,15.17
2022-12-24T09:22:51.659Z,15.07
2022-12-24T09:25:33.794Z,14.82
2022-12-24T09:28:22.561Z,14.59
2022-12-24T09:31:10.323Z,14.73
2022-12-24T09:33:59.592Z,14.32
2022-12-24T09:36:49.493Z,14.79
2022-12-24T09:39:31.773Z,14.74
2022-12-24T09:42:39.555Z,14.48
2022-12-24T09:45:31.451Z,14.60
2022-12-24T09:48:31.419Z,14.54
2022-12-24T09:51:37.829Z,14.59
2022-12-24T09:54:49.274Z,14.64
2022-12-24T09:57:45.455Z,14.91
2022-12-24T10:00:52.350Z,14.84
2022-12-24T10:03:41.511Z,14.60
2022-12-24T10:06:35.956Z,14.47
2022-12-24T10:09:42.564Z,14.58
2022-12-24T10:13:07.248Z,14.81
2022-12-24T10:16:15.643Z,14.91
2022-12-24T10:19:09.975Z,14.79
2022-12-24T10:22:12.552Z,14.48
2022-12-24T10:25:45.586Z,14.58
2022-12-24T10:28:50.420Z,14.62
2022-12-24T10:31:45.489Z,14.27
2022-12-24T10:34:41.453Z,14.20
2022-12-24T10:37:31.893Z,14.52
2022-12-24T10:40:43.412Z,14.63
2022-12-24T10:43:42.496Z,14.90
2022-12-24T10:46:40.931Z,14.96
2022-12-24T10:49:33.576Z,14.63
2022-12-24T10:52:36.814Z,14.59
2022-12-24T10:55:27.614Z,14.64
2022-12-24T10:58:18.309Z,14.66
2022-12-24T11:01:09.109Z,14.52
2022-12-24T11:04:31.985Z,14.47
2022-12-24T11:07:26.539Z,14.54
2022-12-24T11:10:16.572Z,14.53
2022-12-24T11:13:35.129Z,14.59
2022-12-24T11:16:32.693Z,14.12
2022-12-24T11:19:25.888Z,14.30
2022-12-24T11:22:38.450Z,14.38
2022-12-24T11:25:40.562Z,14.28
2022-12-24T11:28:35.568Z,14.23
2022-12-24T11:31:30.346Z,14.32
2022-12-24T11:34:45.499Z,14.26
2022-12-24T11:37:32.878Z,14.12
2022-12-24T11:40:34.476Z,13.92
2022-12-24T11:43:45.334Z,13.88
2022-12-24T11:46:45.666Z,13.74
2022-12-24T11:49:37.526Z,13.51
2022-12-24T11:52:20.099Z,13.83
2022-12-24T11:55:16.346Z,13.79
2022-12-24T11:58:12.381Z,13.86
2022-12-24T12:01:17.703Z,13.77
2022-12-24T12:04:04.948Z,13.79
2022-12-24T12:07:15.109Z,13.79
2022-12-24T12:10:15.814Z,13.72
2022-12-24T12:13:27.485Z,13.55
2022-12-24T12:16:56.695Z,13.55
2022-12-24T12:19:46.575Z,13.17
2022-12-24T12:22:48.587Z,13.21
2022-12-24T12:25:40.910Z,13.14
2022-12-24T12:28:32.571Z,13.21
2022-12-24T12:31:31.879Z,13.13
2022-12-24T12:34:23.437Z,13.24
2022-12-24T12:37:14.848Z,13.16
2022-12-24T12:40:04.641Z,13.02
2022-12-24T12:43:13.910Z,12.99
2022-12-24T12:46:06.481Z,12.99
2022-12-24T12:49:06.034Z,13.10
2022-12-24T12:51:50.797Z,13.12
2022-12-24T12:55:23.915Z,13.02
2022-12-24T12:58:12.549Z,12.89
2022-12-24T13:01:07.885Z,13.10
2022-12-24T13:03:59.525Z,13.04
2022-12-24T13:07:12.732Z,13.06
2022-12-24T13:10:22.541Z,12.93
2022-12-24T13:13:35.060Z,12.87
2022-12-24T13:16:46.649Z,12.83
2022-12-24T13:20:11.968Z,12.39
2022-12-24T13:23:18.483Z,12.58
2022-12-24T13:26:21.066Z,12.45
2022-12-24T13:29:02.461Z,12.49
2022-12-24T13:31:44.734Z,12.37
2022-12-24T13:34:52.409Z,12.47
2022-12-24T13:37:41.837Z,12.18
2022-12-24T13:40:34.468Z,12.07
2022-12-24T13:43:22.843Z,12.27
2022-12-24T13:46:06.611Z,12.36
2022-12-24T13:48:54.778Z,12.33
2022-12-24T13:51:37.576Z,12.09
2022-12-24T13:54:32.773Z,11.93
2022-12-24T13:57:55.481Z,12.10
2022-12-24T14:00:46.869Z,11.97
2022-12-24T14:03:50.405Z,11.99
2022-12-24T14:06:37.812Z,12.00
2022-12-24T14:09:32.580Z,12.03
2022-12-24T14:12:17.548Z,12.20
2022-12-24T14:15:08.462Z,12.07
2022-12-24T14:17:57.789Z,12.16
2022-12-24T14:20:41.530Z,11.99
2022-12-24T14:23:33.747Z,11.96
2022-12-24T14:26:29.845Z,12.01
2022-12-24T14:29:34.917Z,12.20
2022-12-24T14:32:25.413Z,12.03
2022-12-24T14:35:21.595Z,12.20
2022-12-24T14:38:09.833Z,12.13
2022-12-24T14:41:29.413Z,11.98
2022-12-24T14:44:38.827Z,12.04
2022-12-24T14:47:51.619Z,11.98
2022-12-24T14:50:59.851Z,12.08
2022-12-24T14:54:03.548Z,12.00
2022-12-24T14:56:51.798Z,11.80
2022-12-24T14:59:36.469Z,11.78
2022-12-24T15:02:58.508Z,11.78
2022-12-24T15:05:40.764Z,11.73
2022-12-24T15:08:39.459Z,11.70
2022-12-24T15:11:28.754Z,11.83
2022-12-24T15:14:20.508Z,11.82
2022-12-24T15:17:11.899Z,11.70
2022-12-24T15:20:01.529Z,11.57
2022-12-24T15:22:44.346Z,11.56
2022-12-24T15:25:39.353Z,11.58
2022-12-24T15:28:30.819Z,11.47
2022-12-24T15:31:21.552Z,11.57
2022-12-24T15:34:05.831Z,11.59
2022-12-24T15:36:54.354Z,11.53
2022-12-24T15:39:37.703Z,11.42
2022-12-24T15:42:34.442Z,11.52
2022-12-24T15:45:28.747Z,11.61
2022-12-24T15:48:16.458Z,11.69
2022-12-24T15:51:10.773Z,11.36
2022-12-24T15:53:53.474Z,11.27
2022-12-24T15:56:44.917Z,11.38
2022-12-24T15:59:29.441Z,11.47
2022-12-24T16:02:50.576Z,11.46
2022-12-24T16:05:35.804Z,11.30
2022-12-24T16:08:24.511Z,11.38
2022-12-24T16:11:34.796Z,11.40
2022-12-24T16:14:28.445Z,11.26
2022-12-24T16:17:10.703Z,11.36
2022-12-24T16:20:02.403Z,11.36
2022-12-24T16:22:46.753Z,11.29
2022-12-24T16:25:36.509Z,11.36
2022-12-24T16:28:23.564Z,11.32
2022-12-24T16:31:12.491Z,11.33
2022-12-24T16:33:55.800Z,11.39
2022-12-24T16:36:44.461Z,11.45
2022-12-24T16:39:33.719Z,11.36
2022-12-24T16:42:40.467Z,11.43
2022-12-24T16:45:28.752Z,11.31
2022-12-24T16:48:14.486Z,11.41
2022-12-24T16:51:03.384Z,11.34
2022-12-24T16:53:45.840Z,11.08
2022-12-24T16:56:34.373Z,11.05
2022-12-24T16:59:28.784Z,11.16
2022-12-24T17:02:21.857Z,11.15
2022-12-24T17:05:10.434Z,11.07
2022-12-24T17:07:59.475Z,10.96
2022-12-24T17:10:42.776Z,11.04
2022-12-24T17:13:24.506Z,10.91
2022-12-24T17:16:15.340Z,10.96
2022-12-24T17:18:59.500Z,11.12
2022-12-24T17:21:41.975Z,11.30
2022-12-24T17:24:30.494Z,11.24
2022-12-24T17:27:19.694Z,11.34
2022-12-24T17:30:02.416Z,11.26
2022-12-24T17:32:51.918Z,11.27
2022-12-24T17:35:33.374Z,11.11
2022-12-24T17:38:22.433Z,11.05
2022-12-24T17:41:17.881Z,11.25
2022-12-24T17:44:06.373Z,11.22
2022-12-24T17:46:56.487Z,11.09
2022-12-24T17:49:38.810Z,11.20
2022-12-24T17:52:27.440Z,11.04
2022-12-24T17:55:17.771Z,11.23
2022-12-24T17:58:00.395Z,11.21
2022-12-24T18:00:50.828Z,11.38
2022-12-24T18:03:33.435Z,11.32
2022-12-24T18:06:22.756Z,11.20
2022-12-24T18:09:05.297Z,11.29
2022-12-24T18:11:47.688Z,11.34
2022-12-24T18:14:36.410Z,11.32
2022-12-24T18:17:18.810Z,11.23
2022-12-24T18:20:07.494Z,11.13
2022-12-24T18:22:50.621Z,11.16
2022-12-24T18:25:39.465Z,11.18
2022-12-24T18:28:28.300Z,11.06
2022-12-24T18:31:16.849Z,11.15
2022-12-24T18:34:05.403Z,11.08
2022-12-24T18:36:54.527Z,10.90
2022-12-24T18:39:44.369Z,11.11
2022-12-24T18:42:26.962Z,10.87
2022-12-24T18:45:15.476Z,10.94
2022-12-24T18:47:57.847Z,10.82
2022-12-24T18:50:48.447Z,10.94
2022-12-24T18:53:30.830Z,11.15
2022-12-24T18:56:22.511Z,11.06
2022-12-24T18:59:07.835Z,10.83
2022-12-24T19:01:56.620Z,11.01
2022-12-24T19:04:46.358Z,10.95
2022-12-24T19:07:35.974Z,11.11
2022-12-24T19:10:18.497Z,11.09
2022-12-24T19:13:07.474Z,11.11
2022-12-24T19:15:56.516Z,10.94
2022-12-24T19:18:45.453Z,11.03
2022-12-24T19:21:27.753Z,11.07
2022-12-24T19:24:18.307Z,11.06
2022-12-24T19:27:01.465Z,11.08
2022-12-24T19:29:50.447Z,11.15
2022-12-24T19:32:32.915Z,10.93
2022-12-24T19:35:21.357Z,10.84
2022-12-24T19:38:03.706Z,10.78
2022-12-24T19:40:52.373Z,10.91
2022-12-24T19:43:43.789Z,10.95
2022-12-24T19:46:37.280Z,10.93
2022-12-24T19:49:26.885Z,10.94
2022-12-24T19:52:08.499Z,11.02
2022-12-24T19:54:50.753Z,10.89
2022-12-24T19:57:39.446Z,10.73
2022-12-24T20:00:28.346Z,10.77
2022-12-24T20:03:10.880Z,10.75
2022-12-24T20:06:02.421Z,10.46
2022-12-24T20:08:46.698Z,10.58
2022-12-24T20:11:36.412Z,10.58
2022-12-24T20:14:19.796Z,10.52
2022-12-24T20:17:08.514Z,10.60
2022-12-24T20:19:50.689Z,10.58
2022-12-24T20:22:39.490Z,10.61
2022-12-24T20:25:21.901Z,10.27
2022-12-24T20:28:10.433Z,9.95
2022-12-24T20:30:59.365Z,9.96
2022-12-24T20:33:42.975Z,9.95
2022-12-24T20:36:33.375Z,10.10
2022-12-24T20:39:15.699Z,10.06
2022-12-24T20:42:04.518Z,9.89
2022-12-24T20:44:52.649Z,9.65
2022-12-24T20:47:35.397Z,9.72
2022-12-24T20:50:26.449Z,9.58
2022-12-24T20:53:09.479Z,9.50
2022-12-24T20:56:02.000Z,9.48
2022-12-24T20:58:43.498Z,9.37
2022-12-24T21:01:27.731Z,9.18
2022-12-24T21:04:18.328Z,9.02
2022-12-24T21:07:07.311Z,9.11
2022-12-24T21:09:49.687Z,9.04
2022-12-24T21:12:56.382Z,8.82
2022-12-24T21:15:48.180Z,9.12
2022-12-24T21:18:37.347Z,8.93
2022-12-24T21:21:19.734Z,9.27
2022-12-24T21:24:08.359Z,9.26
2022-12-24T21:26:50.770Z,9.20
2022-12-24T21:29:39.485Z,9.05
2022-12-24T21:32:28.372Z,9.16
2022-12-24T21:35:18.720Z,9.15
2022-12-24T21:38:01.440Z,9.10
2022-12-24T21:40:49.640Z,9.13
2022-12-24T21:43:39.271Z,8.78
2022-12-24T21:46:34.457Z,8.77
2022-12-24T21:49:34.672Z,8.76
2022-12-24T21:52:23.477Z,8.95
2022-12-24T21:55:12.753Z,8.90
2022-12-24T21:58:00.691Z,8.86
2022-12-24T22:00:43.598Z,8.65
2022-12-24T22:03:32.527Z,8.59
2022-12-24T22:06:34.469Z,8.58
2022-12-24T22:09:43.443Z,8.78
2022-12-24T22:12:33.151Z,8.98
2022-12-24T22:15:16.244Z,8.93
2022-12-24T22:18:04.704Z,8.66
2022-12-24T22:20:47.409Z,8.73
2022-12-24T22:23:41.885Z,8.77
2022-12-24T22:26:26.469Z,8.80
2022-12-24T22:29:15.794Z,8.74
2022-12-24T22:31:57.574Z,8.86
2022-12-24T22:34:47.503Z,8.73
2022-12-24T22:37:30.418Z,8.74
2022-12-24T22:40:19.702Z,8.75
2022-12-24T22:43:02.461Z,8.61
2022-12-24T22:45:58.397Z,8.63
2022-12-24T22:48:49.735Z,8.58
2022-12-24T22:51:32.363Z,8.76
2022-12-24T22:54:14.622Z,8.85
2022-12-24T22:57:03.363Z,8.75
2022-12-24T22:59:51.681Z,8.70
2022-12-24T23:02:35.475Z,8.82
2022-12-24T23:05:24.737Z,8.85
2022-12-24T23:08:07.383Z,8.89
2022-12-24T23:10:55.702Z,8.99
2022-12-24T23:13:56.379Z,8.98
2022-12-24T23:16:51.424Z,9.09
2022-12-24T23:19:41.413Z,8.87
2022-12-24T23:22:23.643Z,9.01
2022-12-24T23:25:12.372Z,8.89
2022-12-24T23:27:54.606Z,8.96
2022-12-24T23:30:43.368Z,8.75
2022-12-24T23:33:25.718Z,8.99
2022-12-24T23:36:15.449Z,8.97
2022-12-24T23:39:05.290Z,9.13
2022-12-24T23:41:54.441Z,9.10
2022-12-24T23:44:36.626Z,9.02
2022-12-24T23:47:26.360Z,9.10
2022-12-24T23:50:08.720Z,8.95
2022-12-24T23:52:57.388Z,9.33
2022-12-24T23:55:46.459Z,9.16
2022-12-24T23:58:36.713Z,9.09
